Aviation Digital Data Service (ADDS)

Output produced by TAFs form (0635 UTC 24 September 2017)
found at http://aviationweather.gov/adds/tafs/
 
KTCS 240520Z 2406/2506 28007KT P6SM SKC 
     FM241900 21012KT P6SM FEW100